sensor_id;sensor_type;location;lat;lon;timestamp;pressure;altitude;pressure_sealevel;temperature;humidity
37634;BME280;32048;49.902;22.508;2023-02-12T00:00:43;99627.88;;;1.82;100.00
37634;BME280;32048;49.902;22.508;2023-02-12T00:03:30;99636.53;;;1.82;100.00
37634;BME280;32048;49.902;22.508;2023-02-12T00:06:00;99636.53;;;1.87;100.00
37634;BME280;32048;49.902;22.508;2023-02-12T00:08:28;99639.13;;;1.93;100.00
37634;BME280;32048;49.902;22.508;2023-02-12T00:10:55;99636.50;;;1.96;100.00
37634;BME280;32048;49.902;22.508;2023-02-12T00:13:22;99639.09;;;2.01;100.00
37634;BME280;32048;49.902;22.508;2023-02-12T00:15:50;99644.28;;;2.05;100.00
37634;BME280;32048;49.902;22.508;2023-02-12T00:18:17;99646.00;;;2.08;100.00
37634;BME280;32048;49.902;22.508;2023-02-12T00:20:44;99655.59;;;2.04;100.00
37634;BME280;32048;49.902;22.508;2023-02-12T00:23:11;99648.63;;;2.05;100.00
37634;BME280;32048;49.902;22.508;2023-02-12T00:25:41;99656.44;;;2.06;100.00
37634;BME280;32048;49.902;22.508;2023-02-12T00:28:08;99655.56;;;2.09;100.00
37634;BME280;32048;49.902;22.508;2023-02-12T00:30:35;99657.28;;;2.10;100.00
37634;BME280;32048;49.902;22.508;2023-02-12T00:33:02;99655.53;;;2.11;100.00
37634;BME280;32048;49.902;22.508;2023-02-12T00:35:30;99665.94;;;2.15;100.00
37634;BME280;32048;49.902;22.508;2023-02-12T00:37:57;99659.88;;;2.15;100.00
37634;BME280;32048;49.902;22.508;2023-02-12T00:40:24;99663.34;;;2.18;100.00
37634;BME280;32048;49.902;22.508;2023-02-12T00:42:51;99666.81;;;2.20;100.00
37634;BME280;32048;49.902;22.508;2023-02-12T00:45:18;99658.13;;;2.17;100.00
37634;BME280;32048;49.902;22.508;2023-02-12T00:47:45;99670.28;;;2.22;100.00
37634;BME280;32048;49.902;22.508;2023-02-12T00:50:12;99667.69;;;2.21;100.00
37634;BME280;32048;49.902;22.508;2023-02-12T00:52:42;99676.38;;;2.23;100.00
37634;BME280;32048;49.902;22.508;2023-02-12T00:55:09;99679.81;;;2.22;100.00
37634;BME280;32048;49.902;22.508;2023-02-12T00:57:36;99679.81;;;2.22;100.00
37634;BME280;32048;49.902;22.508;2023-02-12T01:00:03;99694.59;;;2.27;100.00
37634;BME280;32048;49.902;22.508;2023-02-12T01:02:30;99695.44;;;2.28;100.00
37634;BME280;32048;49.902;22.508;2023-02-12T01:04:57;99703.28;;;2.23;100.00
37634;BME280;32048;49.902;22.508;2023-02-12T01:07:25;99700.66;;;2.22;100.00
37634;BME280;32048;49.902;22.508;2023-02-12T01:09:52;99694.59;;;2.24;100.00
37634;BME280;32048;49.902;22.508;2023-02-12T01:12:19;99694.59;;;2.24;100.00
37634;BME280;32048;49.902;22.508;2023-02-12T01:14:46;99690.25;;;2.23;100.00
37634;BME280;32048;49.902;22.508;2023-02-12T01:17:13;99697.19;;;2.27;100.00
37634;BME280;32048;49.902;22.508;2023-02-12T01:19:40;99703.25;;;2.28;100.00
37634;BME280;32048;49.902;22.508;2023-02-12T01:22:07;99713.72;;;2.26;100.00
37634;BME280;32048;49.902;22.508;2023-02-12T01:24:34;99721.53;;;2.26;100.00
37634;BME280;32048;49.902;22.508;2023-02-12T01:27:01;99721.50;;;2.29;100.00
37634;BME280;32048;49.902;22.508;2023-02-12T01:29:28;99733.66;;;2.31;100.00
37634;BME280;32048;49.902;22.508;2023-02-12T01:31:55;99738.00;;;2.32;100.00
37634;BME280;32048;49.902;22.508;2023-02-12T01:34:23;99746.69;;;2.32;100.00
37634;BME280;32048;49.902;22.508;2023-02-12T01:36:49;99738.91;;;2.29;100.00
37634;BME280;32048;49.902;22.508;2023-02-12T01:39:17;99746.69;;;2.26;100.00
37634;BME280;32048;49.902;22.508;2023-02-12T01:41:44;99744.97;;;2.28;100.00
37634;BME280;32048;49.902;22.508;2023-02-12T01:46:46;99749.31;;;2.27;100.00
37634;BME280;32048;49.902;22.508;2023-02-12T01:49:30;99745.00;;;2.26;100.00
37634;BME280;32048;49.902;22.508;2023-02-12T01:52:09;99749.34;;;2.24;100.00
37634;BME280;32048;49.902;22.508;2023-02-12T01:54:39;99756.28;;;2.27;100.00
37634;BME280;32048;49.902;22.508;2023-02-12T01:57:08;99750.22;;;2.20;100.00
37634;BME280;32048;49.902;22.508;2023-02-12T01:59:39;99754.53;;;2.23;100.00
37634;BME280;32048;49.902;22.508;2023-02-12T02:02:07;99756.25;;;2.24;100.00
37634;BME280;32048;49.902;22.508;2023-02-12T02:04:42;99751.94;;;2.24;100.00
37634;BME280;32048;49.902;22.508;2023-02-12T02:07:12;99762.34;;;2.27;100.00
37634;BME280;32048;49.902;22.508;2023-02-12T02:09:40;99772.75;;;2.26;100.00
37634;BME280;32048;49.902;22.508;2023-02-12T02:12:08;99767.56;;;2.27;100.00
37634;BME280;32048;49.902;22.508;2023-02-12T02:14:57;99770.16;;;2.27;100.00
37634;BME280;32048;49.902;22.508;2023-02-12T02:31:43;99798.84;;;2.20;100.00
37634;BME280;32048;49.902;22.508;2023-02-12T02:34:32;99810.13;;;2.19;100.00
37634;BME280;32048;49.902;22.508;2023-02-12T02:43:09;99816.25;;;2.13;100.00
37634;BME280;32048;49.902;22.508;2023-02-12T02:45:51;99817.97;;;2.11;100.00
37634;BME280;32048;49.902;22.508;2023-02-12T02:48:51;99817.97;;;2.10;100.00
37634;BME280;32048;49.902;22.508;2023-02-12T02:51:32;99820.56;;;2.08;100.00
37634;BME280;32048;49.902;22.508;2023-02-12T02:54:11;99837.06;;;2.04;100.00
37634;BME280;32048;49.902;22.508;2023-02-12T02:56:43;99844.03;;;2.02;100.00
37634;BME280;32048;49.902;22.508;2023-02-12T02:59:16;99844.88;;;1.99;100.00
37634;BME280;32048;49.902;22.508;2023-02-12T03:01:55;99848.34;;;1.98;100.00
37634;BME280;32048;49.902;22.508;2023-02-12T03:07:05;99854.44;;;1.96;100.00
37634;BME280;32048;49.902;22.508;2023-02-12T03:09:58;99860.53;;;1.93;100.00
37634;BME280;32048;49.902;22.508;2023-02-12T03:12:34;99870.94;;;1.93;100.00
37634;BME280;32048;49.902;22.508;2023-02-12T03:15:07;99876.13;;;1.95;100.00
37634;BME280;32048;49.902;22.508;2023-02-12T03:17:42;99883.09;;;1.96;100.00
37634;BME280;32048;49.902;22.508;2023-02-12T03:20:17;99907.41;;;1.96;100.00
37634;BME280;32048;49.902;22.508;2023-02-12T03:22:53;99916.97;;;1.96;100.00
37634;BME280;32048;49.902;22.508;2023-02-12T03:25:49;99926.50;;;1.95;100.00
37634;BME280;32048;49.902;22.508;2023-02-12T03:28:29;99939.50;;;1.92;100.00
37634;BME280;32048;49.902;22.508;2023-02-12T03:33:47;99954.25;;;1.81;100.00
37634;BME280;32048;49.902;22.508;2023-02-12T03:38:54;99974.19;;;1.71;100.00
37634;BME280;32048;49.902;22.508;2023-02-12T03:41:47;99978.53;;;1.66;100.00
37634;BME280;32048;49.902;22.508;2023-02-12T03:49:32;100001.88;;;1.52;100.00
37634;BME280;32048;49.902;22.508;2023-02-12T03:52:02;99995.78;;;1.47;100.00
37634;BME280;32048;49.902;22.508;2023-02-12T03:54:30;100005.31;;;1.42;100.00
37634;BME280;32048;49.902;22.508;2023-02-12T03:57:06;100012.22;;;1.35;100.00
37634;BME280;32048;49.902;22.508;2023-02-12T03:59:37;100016.50;;;1.32;100.00
37634;BME280;32048;49.902;22.508;2023-02-12T04:02:04;100015.63;;;1.27;100.00
37634;BME280;32048;49.902;22.508;2023-02-12T04:04:33;100022.50;;;1.18;100.00
37634;BME280;32048;49.902;22.508;2023-02-12T04:07:01;100028.56;;;1.13;100.00
37634;BME280;32048;49.902;22.508;2023-02-12T04:09:29;100035.44;;;1.08;100.00
37634;BME280;32048;49.902;22.508;2023-02-12T04:28:35;100069.09;;;0.86;100.00
37634;BME280;32048;49.902;22.508;2023-02-12T04:31:35;100082.94;;;0.85;100.00
37634;BME280;32048;49.902;22.508;2023-02-12T04:34:17;100091.63;;;0.84;100.00
37634;BME280;32048;49.902;22.508;2023-02-12T04:36:57;100095.03;;;0.80;100.00
37634;BME280;32048;49.902;22.508;2023-02-12T04:39:28;100109.78;;;0.79;100.00
37634;BME280;32048;49.902;22.508;2023-02-12T04:42:00;100114.06;;;0.76;100.00
37634;BME280;32048;49.902;22.508;2023-02-12T04:44:33;100116.63;;;0.70;100.00
37634;BME280;32048;49.902;22.508;2023-02-12T04:47:00;100112.25;;;0.66;100.00
37634;BME280;32048;49.902;22.508;2023-02-12T04:49:28;100128.69;;;0.63;100.00
37634;BME280;32048;49.902;22.508;2023-02-12T04:51:55;100120.81;;;0.57;100.00
37634;BME280;32048;49.902;22.508;2023-02-12T04:54:23;100125.09;;;0.53;100.00
37634;BME280;32048;49.902;22.508;2023-02-12T04:56:50;100127.69;;;0.53;100.00
37634;BME280;32048;49.902;22.508;2023-02-12T04:59:17;100127.66;;;0.49;100.00
37634;BME280;32048;49.902;22.508;2023-02-12T05:01:44;100134.53;;;0.44;100.00
37634;BME280;32048;49.902;22.508;2023-02-12T05:04:13;100142.31;;;0.42;100.00
37634;BME280;32048;49.902;22.508;2023-02-12T05:06:42;100151.81;;;0.38;100.00
37634;BME280;32048;49.902;22.508;2023-02-12T05:09:13;100161.25;;;0.33;100.00
37634;BME280;32048;49.902;22.508;2023-02-12T05:11:41;100164.69;;;0.29;100.00
37634;BME280;32048;49.902;22.508;2023-02-12T05:14:08;100167.25;;;0.26;100.00
37634;BME280;32048;49.902;22.508;2023-02-12T05:16:36;100165.44;;;0.22;100.00
37634;BME280;32048;49.902;22.508;2023-02-12T05:19:03;100174.00;;;0.13;100.00
37634;BME280;32048;49.902;22.508;2023-02-12T05:21:30;100180.91;;;0.13;100.00
37634;BME280;32048;49.902;22.508;2023-02-12T05:23:57;100188.72;;;0.11;100.00
37634;BME280;32048;49.902;22.508;2023-02-12T05:26:24;100195.59;;;0.11;100.00
37634;BME280;32048;49.902;22.508;2023-02-12T05:28:51;100205.16;;;0.12;100.00
37634;BME280;32048;49.902;22.508;2023-02-12T05:31:19;100204.28;;;0.10;100.00
37634;BME280;32048;49.902;22.508;2023-02-12T05:33:47;100214.59;;;0.05;100.00
37634;BME280;32048;49.902;22.508;2023-02-12T05:36:17;100221.53;;;0.05;100.00
37634;BME280;32048;49.902;22.508;2023-02-12T05:38:45;100223.22;;;0.04;100.00
37634;BME280;32048;49.902;22.508;2023-02-12T05:41:15;100218.84;;;0.02;100.00
37634;BME280;32048;49.902;22.508;2023-02-12T05:43:43;100225.81;;;0.03;100.00
37634;BME280;32048;49.902;22.508;2023-02-12T05:46:15;100229.25;;;0.02;100.00
37634;BME280;32048;49.902;22.508;2023-02-12T05:48:42;100228.34;;;-0.01;100.00
37634;BME280;32048;49.902;22.508;2023-02-12T05:51:15;100238.75;;;-0.01;100.00
37634;BME280;32048;49.902;22.508;2023-02-12T05:53:43;100249.97;;;-0.03;100.00
37634;BME280;32048;49.902;22.508;2023-02-12T05:58:45;100288.97;;;0.00;100.00
37634;BME280;32048;49.902;22.508;2023-02-12T06:01:21;100289.84;;;0.01;100.00
37634;BME280;32048;49.902;22.508;2023-02-12T06:03:49;100292.44;;;0.01;100.00
37634;BME280;32048;49.902;22.508;2023-02-12T06:06:16;100296.78;;;0.00;100.00
37634;BME280;32048;49.902;22.508;2023-02-12T06:08:46;100310.63;;;0.01;100.00
37634;BME280;32048;49.902;22.508;2023-02-12T06:11:14;100329.69;;;0.04;100.00
37634;BME280;32048;49.902;22.508;2023-02-12T06:13:43;100347.06;;;0.05;100.00
37634;BME280;32048;49.902;22.508;2023-02-12T06:18:48;100328.88;;;0.07;100.00
37634;BME280;32048;49.902;22.508;2023-02-12T06:21:17;100337.56;;;0.09;100.00
37634;BME280;32048;49.902;22.508;2023-02-12T06:23:45;100342.78;;;0.10;100.00
37634;BME280;32048;49.902;22.508;2023-02-12T06:26:12;100342.81;;;0.12;100.00
37634;BME280;32048;49.902;22.508;2023-02-12T06:28:39;100351.47;;;0.12;100.00
37634;BME280;32048;49.902;22.508;2023-02-12T06:31:30;100357.44;;;0.07;100.00
37634;BME280;32048;49.902;22.508;2023-02-12T06:34:01;100356.69;;;0.12;100.00
37634;BME280;32048;49.902;22.508;2023-02-12T06:36:29;100360.22;;;0.16;100.00
37634;BME280;32048;49.902;22.508;2023-02-12T06:38:56;100363.59;;;0.13;100.00
37634;BME280;32048;49.902;22.508;2023-02-12T06:41:23;100371.47;;;0.18;100.00
37634;BME280;32048;49.902;22.508;2023-02-12T06:43:50;100373.25;;;0.19;100.00
37634;BME280;32048;49.902;22.508;2023-02-12T06:46:18;100375.94;;;0.25;100.00
37634;BME280;32048;49.902;22.508;2023-02-12T06:48:45;100381.22;;;0.30;100.00
37634;BME280;32048;49.902;22.508;2023-02-12T06:51:16;100373.44;;;0.33;100.00
37634;BME280;32048;49.902;22.508;2023-02-12T06:53:44;100373.53;;;0.37;100.00
37634;BME280;32048;49.902;22.508;2023-02-12T06:56:12;100380.47;;;0.40;100.00
37634;BME280;32048;49.902;22.508;2023-02-12T06:58:42;100380.50;;;0.41;100.00
37634;BME280;32048;49.902;22.508;2023-02-12T07:01:12;100377.94;;;0.45;100.00
37634;BME280;32048;49.902;22.508;2023-02-12T07:03:41;100384.06;;;0.47;100.00
37634;BME280;32048;49.902;22.508;2023-02-12T07:06:08;100391.09;;;0.52;100.00
37634;BME280;32048;49.902;22.508;2023-02-12T07:08:36;100400.69;;;0.56;100.00
37634;BME280;32048;49.902;22.508;2023-02-12T07:11:03;100393.81;;;0.61;100.00
37634;BME280;32048;49.902;22.508;2023-02-12T07:13:31;100386.94;;;0.65;100.00
37634;BME280;32048;49.902;22.508;2023-02-12T07:16:09;100388.69;;;0.66;100.00
37634;BME280;32048;49.902;22.508;2023-02-12T07:18:38;100394.81;;;0.70;100.00
37634;BME280;32048;49.902;22.508;2023-02-12T07:21:06;100402.59;;;0.71;100.00
37634;BME280;32048;49.902;22.508;2023-02-12T07:23:34;100402.69;;;0.76;100.00
37634;BME280;32048;49.902;22.508;2023-02-12T07:26:06;100402.75;;;0.79;100.00
37634;BME280;32048;49.902;22.508;2023-02-12T07:28:34;100401.94;;;0.85;100.00
37634;BME280;32048;49.902;22.508;2023-02-12T07:31:13;100395.97;;;0.90;100.00
37634;BME280;32048;49.902;22.508;2023-02-12T07:33:42;100409.88;;;0.95;100.00
37634;BME280;32048;49.902;22.508;2023-02-12T07:36:14;100408.25;;;1.02;100.00
37634;BME280;32048;49.902;22.508;2023-02-12T07:38:42;100397.03;;;1.08;100.00
37634;BME280;32048;49.902;22.508;2023-02-12T07:41:22;100408.38;;;1.13;100.00
37634;BME280;32048;49.902;22.508;2023-02-12T07:44:00;100416.19;;;1.14;100.00
37634;BME280;32048;49.902;22.508;2023-02-12T07:46:31;100423.25;;;1.21;100.00
37634;BME280;32048;49.902;22.508;2023-02-12T07:49:00;100422.47;;;1.29;100.00
37634;BME280;32048;49.902;22.508;2023-02-12T07:51:28;100429.50;;;1.36;100.00
37634;BME280;32048;49.902;22.508;2023-02-12T07:53:56;100425.19;;;1.38;100.00
37634;BME280;32048;49.902;22.508;2023-02-12T07:56:25;100431.28;;;1.40;100.00
37634;BME280;32048;49.902;22.508;2023-02-12T07:59:02;100437.41;;;1.45;100.00
37634;BME280;32048;49.902;22.508;2023-02-12T08:01:35;100434.00;;;1.52;100.00
37634;BME280;32048;49.902;22.508;2023-02-12T08:04:05;100436.72;;;1.61;100.00
37634;BME280;32048;49.902;22.508;2023-02-12T08:06:35;100444.59;;;1.67;100.00
37634;BME280;32048;49.902;22.508;2023-02-12T08:09:05;100443.75;;;1.70;100.00
37634;BME280;32048;49.902;22.508;2023-02-12T08:11:33;100449.88;;;1.72;100.00
37634;BME280;32048;49.902;22.508;2023-02-12T08:14:01;100451.63;;;1.75;100.00
37634;BME280;32048;49.902;22.508;2023-02-12T08:16:29;100456.84;;;1.76;100.00
37634;BME280;32048;49.902;22.508;2023-02-12T08:18:57;100457.72;;;1.77;100.00
37634;BME280;32048;49.902;22.508;2023-02-12T08:21:41;100463.84;;;1.80;100.00
37634;BME280;32048;49.902;22.508;2023-02-12T08:24:09;100473.47;;;1.84;100.00
37634;BME280;32048;49.902;22.508;2023-02-12T08:26:38;100476.09;;;1.87;100.00
37634;BME280;32048;49.902;22.508;2023-02-12T08:29:08;100470.91;;;1.89;100.00
37634;BME280;32048;49.902;22.508;2023-02-12T08:31:40;100478.72;;;1.89;100.00
37634;BME280;32048;49.902;22.508;2023-02-12T08:34:23;100467.38;;;1.84;98.81
37634;BME280;32048;49.902;22.508;2023-02-12T08:36:52;100470.88;;;1.87;99.77
37634;BME280;32048;49.902;22.508;2023-02-12T08:39:24;100476.09;;;1.87;97.86
37634;BME280;32048;49.902;22.508;2023-02-12T08:41:54;100472.53;;;1.81;96.55
37634;BME280;32048;49.902;22.508;2023-02-12T08:44:22;100468.19;;;1.80;96.65
37634;BME280;32048;49.902;22.508;2023-02-12T08:46:50;100475.13;;;1.79;96.54
37634;BME280;32048;49.902;22.508;2023-02-12T08:49:21;100475.97;;;1.78;95.56
37634;BME280;32048;49.902;22.508;2023-02-12T08:51:50;100476.00;;;1.81;95.58
37634;BME280;32048;49.902;22.508;2023-02-12T08:54:20;100474.34;;;1.86;95.54
37634;BME280;32048;49.902;22.508;2023-02-12T08:56:48;100477.88;;;1.92;96.35
37634;BME280;32048;49.902;22.508;2023-02-12T08:59:16;100477.94;;;1.98;97.04
37634;BME280;32048;49.902;22.508;2023-02-12T09:01:44;100487.56;;;2.05;96.45
37634;BME280;32048;49.902;22.508;2023-02-12T09:04:17;100491.09;;;2.10;96.33
37634;BME280;32048;49.902;22.508;2023-02-12T09:06:45;100489.47;;;2.21;96.97
37634;BME280;32048;49.902;22.508;2023-02-12T09:09:13;100494.75;;;2.27;96.73
37634;BME280;32048;49.902;22.508;2023-02-12T09:11:41;100496.47;;;2.27;94.54
37634;BME280;32048;49.902;22.508;2023-02-12T09:14:11;100506.91;;;2.27;95.20
37634;BME280;32048;49.902;22.508;2023-02-12T09:16:39;100506.09;;;2.31;94.84
37634;BME280;32048;49.902;22.508;2023-02-12T09:19:07;100512.16;;;2.32;93.59
37634;BME280;32048;49.902;22.508;2023-02-12T09:21:34;100525.22;;;2.35;91.23
37634;BME280;32048;49.902;22.508;2023-02-12T09:24:02;100520.88;;;2.34;89.90
37634;BME280;32048;49.902;22.508;2023-02-12T09:26:31;100533.00;;;2.33;90.17
37634;BME280;32048;49.902;22.508;2023-02-12T09:29:01;100539.16;;;2.38;90.37
37634;BME280;32048;49.902;22.508;2023-02-12T09:31:28;100539.19;;;2.41;91.64
37634;BME280;32048;49.902;22.508;2023-02-12T09:34:01;100542.78;;;2.53;92.30
37634;BME280;32048;49.902;22.508;2023-02-12T09:36:29;100542.91;;;2.68;92.42
37634;BME280;32048;49.902;22.508;2023-02-12T09:38:57;100550.00;;;2.83;91.60
37634;BME280;32048;49.902;22.508;2023-02-12T09:47:10;100548.59;;;3.28;88.58
37634;BME280;32048;49.902;22.508;2023-02-12T09:52:16;100567.91;;;3.61;86.52
37634;BME280;32048;49.902;22.508;2023-02-12T09:54:44;100559.25;;;3.69;85.64
37634;BME280;32048;49.902;22.508;2023-02-12T09:57:18;100567.16;;;3.77;84.86
37634;BME280;32048;49.902;22.508;2023-02-12T09:59:51;100559.34;;;3.85;83.55
37634;BME280;32048;49.902;22.508;2023-02-12T10:02:21;100556.75;;;3.94;83.63
37634;BME280;32048;49.902;22.508;2023-02-12T10:04:51;100555.94;;;4.00;83.69
37634;BME280;32048;49.902;22.508;2023-02-12T10:07:39;100544.59;;;4.01;82.43
37634;BME280;32048;49.902;22.508;2023-02-12T10:10:24;100555.06;;;4.10;83.52
37634;BME280;32048;49.902;22.508;2023-02-12T10:13:07;100557.69;;;4.11;80.80
37634;BME280;32048;49.902;22.508;2023-02-12T10:15:48;100560.31;;;4.11;79.13
37634;BME280;32048;49.902;22.508;2023-02-12T10:24:58;100559.31;;;3.79;78.93
37634;BME280;32048;49.902;22.508;2023-02-12T10:27:43;100555.84;;;3.83;80.05
37634;BME280;32048;49.902;22.508;2023-02-12T10:32:52;100561.13;;;4.01;79.30
37634;BME280;32048;49.902;22.508;2023-02-12T10:35:23;100557.72;;;4.18;78.32
37634;BME280;32048;49.902;22.508;2023-02-12T10:40:33;100568.25;;;4.54;76.64
37634;BME280;32048;49.902;22.508;2023-02-12T10:43:01;100573.53;;;4.65;73.79
37634;BME280;32048;49.902;22.508;2023-02-12T10:45:33;100571.78;;;4.79;73.91
37634;BME280;32048;49.902;22.508;2023-02-12T10:53:42;100576.16;;;4.93;71.36
37634;BME280;32048;49.902;22.508;2023-02-12T10:56:23;100577.91;;;4.89;69.69
37634;BME280;32048;49.902;22.508;2023-02-12T10:58:56;100584.00;;;4.93;70.55
37634;BME280;32048;49.902;22.508;2023-02-12T11:01:35;100585.75;;;4.89;70.06
37634;BME280;32048;49.902;22.508;2023-02-12T11:07:03;100589.19;;;4.51;69.45
37634;BME280;32048;49.902;22.508;2023-02-12T11:09:38;100587.41;;;4.29;71.78
37634;BME280;32048;49.902;22.508;2023-02-12T11:15:13;100596.00;;;3.97;71.74
37634;BME280;32048;49.902;22.508;2023-02-12T11:17:44;100592.47;;;3.92;72.75
37634;BME280;32048;49.902;22.508;2023-02-12T11:22:49;100595.16;;;4.07;72.40
37634;BME280;32048;49.902;22.508;2023-02-12T11:25:17;100598.66;;;4.12;73.23
37634;BME280;32048;49.902;22.508;2023-02-12T11:27:44;100600.41;;;4.12;73.22
37634;BME280;32048;49.902;22.508;2023-02-12T11:30:25;100594.34;;;4.18;73.33
37634;BME280;32048;49.902;22.508;2023-02-12T11:32:52;100597.78;;;4.12;71.85
37634;BME280;32048;49.902;22.508;2023-02-12T11:35:24;100584.75;;;4.15;71.90
37634;BME280;32048;49.902;22.508;2023-02-12T11:37:56;100589.13;;;4.22;70.85
37634;BME280;32048;49.902;22.508;2023-02-12T11:40:26;100600.44;;;4.21;70.60
37634;BME280;32048;49.902;22.508;2023-02-12T11:42:56;100604.81;;;4.22;70.13
37634;BME280;32048;49.902;22.508;2023-02-12T11:45:36;100607.41;;;4.24;70.43
37634;BME280;32048;49.902;22.508;2023-02-12T11:48:15;100605.69;;;4.20;69.83
37634;BME280;32048;49.902;22.508;2023-02-12T11:50:50;100593.47;;;4.20;69.93
37634;BME280;32048;49.902;22.508;2023-02-12T11:53:33;100603.06;;;4.30;71.97
37634;BME280;32048;49.902;22.508;2023-02-12T11:56:09;100609.22;;;4.42;69.18
37634;BME280;32048;49.902;22.508;2023-02-12T11:58:38;100602.28;;;4.54;67.27
37634;BME280;32048;49.902;22.508;2023-02-12T12:01:33;100604.00;;;4.49;66.50
37634;BME280;32048;49.902;22.508;2023-02-12T12:04:13;100604.88;;;4.42;67.05
37634;BME280;32048;49.902;22.508;2023-02-12T12:06:57;100610.91;;;4.26;68.23
37634;BME280;32048;49.902;22.508;2023-02-12T12:09:40;100608.25;;;4.09;68.56
37634;BME280;32048;49.902;22.508;2023-02-12T12:12:18;100608.25;;;4.10;69.39
37634;BME280;32048;49.902;22.508;2023-02-12T12:14:49;100616.94;;;4.09;68.68
37634;BME280;32048;49.902;22.508;2023-02-12T12:18:05;100615.19;;;4.10;69.49
37634;BME280;32048;49.902;22.508;2023-02-12T12:21:00;100607.34;;;4.07;67.66
37634;BME280;32048;49.902;22.508;2023-02-12T12:26:28;100597.84;;;4.23;67.24
37634;BME280;32048;49.902;22.508;2023-02-12T12:29:21;100601.38;;;4.35;68.43
37634;BME280;32048;49.902;22.508;2023-02-12T12:31:53;100600.53;;;4.55;67.46
37634;BME280;32048;49.902;22.508;2023-02-12T12:34:23;100604.06;;;4.65;67.90
37634;BME280;32048;49.902;22.508;2023-02-12T12:51:39;100600.31;;;6.35;65.54
37634;BME280;32048;49.902;22.508;2023-02-12T12:54:33;100596.31;;;7.10;57.68
37634;BME280;32048;49.902;22.508;2023-02-12T12:57:16;100593.03;;;7.79;57.68
37634;BME280;32048;49.902;22.508;2023-02-12T13:00:30;100588.59;;;8.53;51.40
37634;BME280;32048;49.902;22.508;2023-02-12T13:06:04;100590.03;;;8.76;47.61
37634;BME280;32048;49.902;22.508;2023-02-12T13:08:59;100588.09;;;8.24;49.12
37634;BME280;32048;49.902;22.508;2023-02-12T13:22:36;100600.44;;;5.92;56.50
37634;BME280;32048;49.902;22.508;2023-02-12T13:25:21;100606.69;;;5.41;56.83
37634;BME280;32048;49.902;22.508;2023-02-12T13:27:50;100601.47;;;5.08;58.20
37634;BME280;32048;49.902;22.508;2023-02-12T13:33:11;100598.72;;;5.78;56.97
37634;BME280;32048;49.902;22.508;2023-02-12T13:35:45;100604.00;;;5.74;53.87
37634;BME280;32048;49.902;22.508;2023-02-12T13:38:20;100604.09;;;5.38;55.03
37634;BME280;32048;49.902;22.508;2023-02-12T13:41:00;100606.69;;;5.02;56.77
37634;BME280;32048;49.902;22.508;2023-02-12T13:43:42;100605.75;;;4.44;57.61
37634;BME280;32048;49.902;22.508;2023-02-12T13:46:38;100619.47;;;3.89;61.29
37634;BME280;32048;49.902;22.508;2023-02-12T13:52:06;100626.88;;;3.22;65.90
37634;BME280;32048;49.902;22.508;2023-02-12T13:57:16;100627.34;;;2.79;68.40
37634;BME280;32048;49.902;22.508;2023-02-12T13:59:51;100625.56;;;2.75;70.45
37634;BME280;32048;49.902;22.508;2023-02-12T14:05:03;100628.00;;;2.57;71.51
37634;BME280;32048;49.902;22.508;2023-02-12T14:07:43;100627.94;;;2.50;71.49
37634;BME280;32048;49.902;22.508;2023-02-12T14:10:37;100637.41;;;2.41;71.49
37634;BME280;32048;49.902;22.508;2023-02-12T14:13:35;100635.63;;;2.38;72.05
37634;BME280;32048;49.902;22.508;2023-02-12T14:22:00;100638.72;;;2.06;74.78
37634;BME280;32048;49.902;22.508;2023-02-12T14:29:59;100634.97;;;2.59;72.88
37634;BME280;32048;49.902;22.508;2023-02-12T14:33:08;100640.53;;;2.93;69.92
37634;BME280;32048;49.902;22.508;2023-02-12T14:35:42;100630.91;;;2.86;68.01
37634;BME280;32048;49.902;22.508;2023-02-12T14:43:33;100637.72;;;2.73;70.90
37634;BME280;32048;49.902;22.508;2023-02-12T14:53:52;100648.41;;;2.18;71.23
37634;BME280;32048;49.902;22.508;2023-02-12T14:56:22;100655.88;;;1.92;72.88
37634;BME280;32048;49.902;22.508;2023-02-12T14:58:54;100653.03;;;1.74;74.15
37634;BME280;32048;49.902;22.508;2023-02-12T15:01:30;100655.44;;;1.60;75.59
37634;BME280;32048;49.902;22.508;2023-02-12T15:04:11;100653.44;;;1.42;76.77
37634;BME280;32048;49.902;22.508;2023-02-12T15:06:50;100657.47;;;1.24;78.26
37634;BME280;32048;49.902;22.508;2023-02-12T15:09:32;100659.78;;;1.06;80.09
37634;BME280;32048;49.902;22.508;2023-02-12T15:12:34;100661.13;;;0.84;82.70
37634;BME280;32048;49.902;22.508;2023-02-12T15:18:24;100659.53;;;0.47;85.45
37634;BME280;32048;49.902;22.508;2023-02-12T15:21:18;100665.34;;;0.32;85.42
37634;BME280;32048;49.902;22.508;2023-02-12T15:23:57;100671.09;;;0.17;86.44
37634;BME280;32048;49.902;22.508;2023-02-12T15:26:26;100667.31;;;0.03;87.42
37634;BME280;32048;49.902;22.508;2023-02-12T15:28:54;100658.34;;;-0.13;88.34
37634;BME280;32048;49.902;22.508;2023-02-12T15:31:26;100666.69;;;-0.25;89.21
37634;BME280;32048;49.902;22.508;2023-02-12T15:33:59;100665.59;;;-0.36;89.95
37634;BME280;32048;49.902;22.508;2023-02-12T15:36:28;100662.78;;;-0.46;90.14
37634;BME280;32048;49.902;22.508;2023-02-12T15:38:59;100673.00;;;-0.52;90.04
37634;BME280;32048;49.902;22.508;2023-02-12T15:43:54;100669.97;;;-0.70;91.32
37634;BME280;32048;49.902;22.508;2023-02-12T15:46:22;100679.25;;;-0.80;91.90
37634;BME280;32048;49.902;22.508;2023-02-12T15:48:50;100675.53;;;-0.91;92.94
37634;BME280;32048;49.902;22.508;2023-02-12T15:51:33;100679.56;;;-1.01;93.44
37634;BME280;32048;49.902;22.508;2023-02-12T15:54:04;100683.66;;;-1.11;93.76
37634;BME280;32048;49.902;22.508;2023-02-12T15:56:32;100675.63;;;-1.20;94.79
37634;BME280;32048;49.902;22.508;2023-02-12T15:59:03;100672.75;;;-1.31;95.76